createdAt,value
2019-05-10T00:00:50.275Z,64.95
2019-05-10T00:03:41.954Z,65.92
2019-05-10T00:06:33.928Z,58.15
2019-05-10T00:09:07.504Z,64.70
2019-05-10T00:15:05.073Z,63.05
2019-05-10T00:17:38.947Z,64.60
2019-05-10T00:20:13.244Z,65.55
2019-05-10T00:22:47.353Z,62.83
2019-05-10T00:25:21.437Z,66.20
2019-05-10T00:27:55.627Z,70.75
2019-05-10T00:30:29.667Z,76.72
2019-05-10T00:33:04.893Z,75.08
2019-05-10T00:35:38.969Z,72.03
2019-05-10T00:38:13.008Z,70.60
2019-05-10T00:40:47.090Z,74.37
2019-05-10T00:43:20.790Z,71.75
2019-05-10T00:45:54.847Z,74.12
2019-05-10T00:48:29.059Z,71.50
2019-05-10T00:51:03.115Z,68.62
2019-05-10T00:53:37.169Z,67.47
2019-05-10T00:56:11.236Z,69.72
2019-05-10T00:58:45.243Z,76.85
2019-05-10T01:01:19.312Z,77.05
2019-05-10T01:03:54.425Z,75.00
2019-05-10T01:06:28.956Z,86.53
2019-05-10T01:09:02.801Z,83.52
2019-05-10T01:11:36.854Z,92.72
2019-05-10T01:14:10.760Z,87.88
2019-05-10T01:16:44.936Z,89.13
2019-05-10T01:19:19.021Z,92.37
2019-05-10T01:21:54.830Z,101.27
2019-05-10T01:24:28.719Z,89.67
2019-05-10T01:27:02.786Z,93.00
2019-05-10T01:29:36.849Z,82.60
2019-05-10T01:32:10.835Z,84.05
2019-05-10T01:34:44.611Z,84.20
2019-05-10T01:37:18.682Z,93.27
2019-05-10T01:39:52.380Z,95.28
2019-05-10T01:42:26.936Z,94.77
2019-05-10T01:45:01.048Z,94.45
2019-05-10T01:47:35.129Z,95.32
2019-05-10T01:50:09.320Z,96.47
2019-05-10T01:52:43.350Z,86.82
2019-05-10T01:55:17.438Z,91.87
2019-05-10T01:57:51.396Z,93.67
2019-05-10T02:00:25.382Z,96.32
2019-05-10T02:02:59.178Z,121.10
2019-05-10T02:05:33.764Z,105.60
2019-05-10T02:08:07.662Z,111.88
2019-05-10T02:10:42.520Z,105.80
2019-05-10T02:13:16.496Z,89.10
2019-05-10T02:15:50.188Z,98.37
2019-05-10T02:18:24.267Z,102.38
2019-05-10T02:20:58.359Z,106.95
2019-05-10T02:23:32.089Z,92.75
2019-05-10T02:26:09.827Z,83.72
2019-05-10T02:28:43.830Z,86.55
2019-05-10T02:31:21.480Z,72.08
2019-05-10T02:33:53.326Z,72.58
2019-05-10T02:36:27.471Z,74.95
2019-05-10T02:39:04.899Z,75.47
2019-05-10T02:41:38.448Z,77.60
2019-05-10T02:44:12.274Z,73.92
2019-05-10T02:46:46.348Z,77.75
2019-05-10T02:49:20.340Z,84.00
2019-05-10T02:51:54.505Z,74.67
2019-05-10T02:54:28.989Z,85.92
2019-05-10T02:57:05.146Z,76.50
2019-05-10T02:59:39.516Z,76.30
2019-05-10T03:02:14.796Z,79.12
2019-05-10T03:04:49.017Z,79.67
2019-05-10T03:07:26.477Z,84.77
2019-05-10T03:10:03.757Z,81.20
2019-05-10T03:12:41.635Z,89.30
2019-05-10T03:15:15.862Z,83.22
2019-05-10T03:17:53.122Z,82.27
2019-05-10T03:20:28.878Z,81.22
2019-05-10T03:23:04.410Z,77.55
2019-05-10T03:25:38.377Z,85.10
2019-05-10T03:28:12.688Z,79.77
2019-05-10T03:30:46.769Z,106.43
2019-05-10T03:33:20.789Z,94.22
2019-05-10T03:35:54.808Z,89.32
2019-05-10T03:38:29.477Z,92.37
2019-05-10T03:41:03.973Z,94.70
2019-05-10T03:43:37.847Z,103.90
2019-05-10T03:46:11.955Z,92.10
2019-05-10T03:48:45.892Z,91.02
2019-05-10T03:51:19.976Z,97.78
2019-05-10T03:53:54.072Z,96.75
2019-05-10T03:56:30.904Z,95.50
2019-05-10T03:59:18.246Z,89.30
2019-05-10T04:01:52.609Z,85.38
2019-05-10T04:04:26.560Z,81.65
2019-05-10T04:07:00.695Z,86.12
2019-05-10T04:09:34.738Z,90.55
2019-05-10T04:12:08.821Z,78.12
2019-05-10T04:14:42.862Z,84.28
2019-05-10T04:17:16.578Z,81.63
2019-05-10T04:19:50.529Z,81.30
2019-05-10T04:22:24.663Z,90.95
2019-05-10T04:24:58.285Z,91.50
2019-05-10T04:27:33.343Z,87.72
2019-05-10T04:30:09.033Z,92.12
2019-05-10T04:32:42.919Z,93.87
2019-05-10T04:35:16.809Z,88.27
2019-05-10T04:37:51.701Z,97.35
2019-05-10T04:40:26.860Z,86.15
2019-05-10T04:43:00.641Z,88.80
2019-05-10T04:45:34.516Z,86.47
2019-05-10T04:48:08.576Z,86.65
2019-05-10T04:50:42.337Z,78.70
2019-05-10T04:53:16.355Z,80.97
2019-05-10T04:55:50.309Z,77.37
2019-05-10T04:58:24.519Z,82.92
2019-05-10T05:00:58.580Z,78.65
2019-05-10T05:03:32.701Z,82.00
2019-05-10T05:06:06.681Z,77.05
2019-05-10T05:08:40.740Z,76.80
2019-05-10T05:11:14.496Z,83.97
2019-05-10T05:13:48.595Z,73.35
2019-05-10T05:16:22.271Z,79.65
2019-05-10T05:18:56.391Z,73.78
2019-05-10T05:21:30.525Z,74.20
2019-05-10T05:24:04.233Z,74.60
2019-05-10T05:26:38.338Z,78.83
2019-05-10T05:29:12.345Z,77.32
2019-05-10T05:31:46.347Z,76.60
2019-05-10T05:34:20.252Z,89.95
2019-05-10T05:36:56.060Z,86.08
2019-05-10T05:39:30.089Z,82.02
2019-05-10T05:42:04.605Z,81.37
2019-05-10T05:44:38.847Z,81.05
2019-05-10T05:47:12.897Z,85.30
2019-05-10T05:49:46.777Z,77.12
2019-05-10T05:52:20.769Z,92.97
2019-05-10T05:54:57.647Z,82.53
2019-05-10T05:57:30.186Z,86.80
2019-05-10T06:00:06.659Z,100.80
2019-05-10T06:02:44.947Z,90.87
2019-05-10T06:05:32.237Z,92.30
2019-05-10T06:07:52.991Z,96.00
2019-05-10T06:10:27.088Z,89.15
2019-05-10T06:13:01.231Z,90.17
2019-05-10T06:15:37.881Z,91.47
2019-05-10T06:18:12.167Z,98.75
2019-05-10T06:20:47.292Z,82.95
2019-05-10T06:23:21.300Z,87.35
2019-05-10T06:25:55.538Z,130.22
2019-05-10T06:28:56.993Z,87.57
2019-05-10T06:31:05.583Z,79.80
2019-05-10T06:33:39.678Z,93.22
2019-05-10T06:36:14.717Z,122.30
2019-05-10T06:38:50.195Z,167.75
2019-05-10T06:41:24.123Z,173.07
2019-05-10T06:43:58.246Z,118.02
2019-05-10T06:46:33.588Z,115.65
2019-05-10T06:49:10.904Z,105.50
2019-05-10T06:51:50.967Z,97.17
2019-05-10T06:54:24.828Z,92.02
2019-05-10T06:56:59.041Z,81.12
2019-05-10T06:59:33.131Z,91.25
2019-05-10T07:02:07.324Z,139.72
2019-05-10T07:04:41.503Z,147.57
2019-05-10T07:07:22.372Z,159.82
2019-05-10T07:10:15.842Z,188.35
2019-05-10T07:12:30.119Z,159.52
2019-05-10T07:15:05.207Z,151.10
2019-05-10T07:17:45.449Z,135.45
2019-05-10T07:20:14.541Z,94.42
2019-05-10T07:23:00.214Z,96.05
2019-05-10T07:25:32.331Z,112.47
2019-05-10T07:28:09.378Z,96.90
2019-05-10T07:30:42.387Z,105.75
2019-05-10T07:33:17.031Z,103.12
2019-05-10T07:35:51.209Z,88.47
2019-05-10T07:38:30.686Z,106.37
2019-05-10T07:41:01.010Z,96.42
2019-05-10T07:43:35.681Z,104.27
2019-05-10T07:46:12.563Z,98.27
2019-05-10T07:48:50.619Z,105.80
2019-05-10T07:51:22.962Z,106.67
2019-05-10T07:54:04.631Z,87.55
2019-05-10T07:56:39.107Z,96.70
2019-05-10T07:59:10.511Z,100.47
2019-05-10T08:01:48.638Z,119.97
2019-05-10T08:04:28.966Z,128.55
2019-05-10T08:06:55.689Z,123.53
2019-05-10T08:09:31.704Z,113.92
2019-05-10T08:12:05.606Z,106.45
2019-05-10T08:14:44.613Z,111.80
2019-05-10T08:17:15.402Z,110.35
2019-05-10T08:19:49.299Z,96.63
2019-05-10T08:22:23.089Z,98.37
2019-05-10T08:24:57.325Z,101.62
2019-05-10T08:27:32.481Z,117.75
2019-05-10T08:30:22.585Z,110.00
2019-05-10T08:32:46.248Z,96.20
2019-05-10T08:35:20.371Z,80.32
2019-05-10T08:37:57.495Z,102.38
2019-05-10T08:40:36.946Z,135.60
2019-05-10T08:43:10.932Z,111.60
2019-05-10T08:45:49.047Z,111.72
2019-05-10T08:48:19.388Z,96.95
2019-05-10T08:50:57.388Z,95.22
2019-05-10T08:53:32.849Z,93.52
2019-05-10T08:56:07.550Z,82.57
2019-05-10T08:58:42.261Z,83.03
2019-05-10T09:01:26.677Z,80.80
2019-05-10T09:03:59.144Z,86.32
2019-05-10T09:06:29.422Z,84.62
2019-05-10T09:09:08.148Z,84.10
2019-05-10T09:11:43.960Z,97.42
2019-05-10T09:14:19.996Z,92.82
2019-05-10T09:17:00.813Z,93.55
2019-05-10T09:19:37.468Z,74.27
2019-05-10T09:22:03.067Z,70.72
2019-05-10T09:24:43.233Z,82.47
2019-05-10T09:27:12.932Z,83.15
2019-05-10T09:29:47.007Z,88.58
2019-05-10T09:32:28.662Z,73.65
2019-05-10T09:34:59.823Z,67.00
2019-05-10T09:37:33.283Z,56.53
2019-05-10T09:40:13.087Z,56.95
2019-05-10T09:42:45.801Z,43.73
2019-05-10T09:45:22.174Z,51.05
2019-05-10T09:47:55.553Z,46.55
2019-05-10T09:50:30.462Z,47.10
2019-05-10T09:53:07.388Z,35.40
2019-05-10T09:55:45.502Z,40.48
2019-05-10T09:58:21.775Z,34.78
2019-05-10T10:00:52.839Z,36.55
2019-05-10T10:03:29.700Z,34.73
2019-05-10T10:06:07.592Z,32.58
2019-05-10T10:08:43.454Z,31.85
2019-05-10T10:22:13.238Z,23.10
2019-05-10T10:24:48.908Z,20.88
2019-05-10T10:37:31.354Z,26.48
2019-05-10T10:40:08.468Z,16.75
2019-05-10T10:42:41.119Z,17.15
2019-05-10T10:45:17.405Z,18.48
2019-05-10T10:47:50.814Z,17.20
2019-05-10T10:50:24.559Z,15.53
2019-05-10T10:52:58.294Z,16.50
2019-05-10T10:55:36.595Z,14.38
2019-05-10T10:58:07.605Z,15.38
2019-05-10T11:00:41.735Z,15.63
2019-05-10T11:03:15.403Z,12.58
2019-05-10T11:05:49.118Z,12.85
2019-05-10T11:08:22.868Z,13.48
2019-05-10T11:10:56.560Z,12.58
2019-05-10T11:13:44.000Z,11.45
2019-05-10T11:16:10.889Z,9.88
2019-05-10T11:18:41.822Z,10.70
2019-05-10T11:21:15.593Z,11.10
2019-05-10T11:23:49.303Z,11.97
2019-05-10T11:26:26.935Z,15.98
2019-05-10T11:28:58.275Z,15.40
2019-05-10T11:31:32.051Z,13.45
2019-05-10T11:34:06.312Z,13.72
2019-05-10T11:36:40.571Z,12.75
2019-05-10T11:39:26.131Z,13.20
2019-05-10T11:42:01.084Z,14.13
2019-05-10T11:44:52.828Z,12.43
2019-05-10T11:47:22.907Z,14.07
2019-05-10T11:49:47.827Z,15.60
2019-05-10T11:52:21.836Z,12.88
2019-05-10T11:54:55.672Z,14.55
2019-05-10T11:57:32.437Z,17.25
2019-05-10T12:00:14.274Z,14.58
2019-05-10T12:03:03.230Z,16.10
2019-05-10T12:05:26.344Z,18.02
2019-05-10T12:08:01.956Z,14.87
2019-05-10T12:10:41.182Z,17.42
2019-05-10T12:13:19.371Z,18.73
2019-05-10T12:15:46.610Z,10.05
2019-05-10T12:18:26.598Z,11.33
2019-05-10T12:21:08.668Z,11.05
2019-05-10T12:23:32.726Z,14.95
2019-05-10T12:28:45.729Z,12.50
2019-05-10T12:31:21.054Z,10.13
2019-05-10T12:34:02.520Z,10.28
2019-05-10T12:36:31.438Z,11.15
2019-05-10T12:39:08.272Z,11.65
2019-05-10T12:41:47.729Z,8.78
2019-05-10T12:44:17.647Z,7.12
2019-05-10T12:46:54.178Z,7.37
2019-05-10T12:49:28.144Z,10.40
2019-05-10T12:52:03.337Z,7.65
2019-05-10T12:54:37.636Z,8.45
2019-05-10T12:57:11.788Z,8.83
2019-05-10T12:59:48.627Z,9.30
2019-05-10T13:02:22.561Z,9.90
2019-05-10T13:04:56.619Z,7.78
2019-05-10T13:07:30.721Z,8.25
2019-05-10T13:10:07.756Z,8.10
2019-05-10T13:12:44.548Z,6.35
2019-05-10T13:15:16.728Z,8.43
2019-05-10T13:17:52.833Z,9.48
2019-05-10T13:20:30.856Z,10.00
2019-05-10T13:23:03.471Z,8.35
2019-05-10T13:25:37.249Z,9.25
2019-05-10T13:28:11.937Z,8.18
2019-05-10T13:30:45.751Z,7.35
2019-05-10T13:33:28.675Z,8.80
2019-05-10T13:35:56.600Z,8.70
2019-05-10T13:38:30.591Z,8.90
2019-05-10T13:41:04.355Z,8.75
2019-05-10T13:43:39.275Z,9.40
2019-05-10T13:46:13.051Z,7.78
2019-05-10T13:48:48.241Z,8.10
2019-05-10T13:51:22.453Z,8.53
2019-05-10T13:53:58.932Z,10.35
2019-05-10T13:56:32.911Z,8.65
2019-05-10T13:59:15.509Z,9.25
2019-05-10T14:01:44.229Z,10.70
2019-05-10T14:04:17.766Z,8.50
2019-05-10T14:06:51.920Z,8.90
2019-05-10T14:09:28.731Z,7.70
2019-05-10T14:12:06.124Z,9.45
2019-05-10T14:14:39.914Z,8.00
2019-05-10T14:17:14.079Z,7.47
2019-05-10T14:19:47.798Z,7.28
2019-05-10T14:22:22.238Z,6.75
2019-05-10T14:24:59.142Z,7.72
2019-05-10T14:27:35.898Z,8.28
2019-05-10T14:30:13.410Z,7.78
2019-05-10T14:32:47.392Z,7.50
2019-05-10T14:35:22.674Z,8.25
2019-05-10T14:38:07.503Z,8.55
2019-05-10T14:40:35.600Z,7.85
2019-05-10T14:43:09.421Z,9.20
2019-05-10T14:45:43.622Z,8.83
2019-05-10T14:48:27.698Z,9.53
2019-05-10T14:50:52.780Z,9.38
2019-05-10T14:53:27.381Z,8.55
2019-05-10T14:56:01.668Z,9.65
2019-05-10T14:58:36.273Z,10.88
2019-05-10T15:01:18.516Z,10.93
2019-05-10T15:03:54.760Z,11.18
2019-05-10T15:06:30.955Z,10.03
2019-05-10T15:09:06.446Z,11.83
2019-05-10T15:11:41.116Z,11.20
2019-05-10T15:14:15.185Z,10.43
2019-05-10T15:16:49.290Z,8.83
2019-05-10T15:19:26.439Z,7.22
2019-05-10T15:21:59.029Z,9.23
2019-05-10T15:24:33.100Z,7.35
2019-05-10T15:27:06.985Z,7.58
2019-05-10T15:29:41.095Z,9.13
2019-05-10T15:32:15.158Z,8.38
2019-05-10T15:35:05.139Z,7.25
2019-05-10T15:37:25.086Z,9.75
2019-05-10T15:40:00.585Z,9.50
2019-05-10T15:42:36.208Z,8.03
2019-05-10T15:45:14.250Z,7.60
2019-05-10T15:47:51.107Z,9.75
2019-05-10T15:50:23.045Z,8.68
2019-05-10T15:52:57.222Z,10.93
2019-05-10T15:55:30.925Z,8.78
2019-05-10T15:58:06.239Z,7.87
2019-05-10T16:00:41.646Z,8.20
2019-05-10T16:03:15.845Z,10.75
2019-05-10T16:06:00.285Z,9.73
2019-05-10T16:08:30.529Z,8.80
2019-05-10T16:11:03.119Z,9.05
2019-05-10T16:13:38.003Z,7.95
2019-05-10T16:16:13.428Z,7.28
2019-05-10T16:18:47.089Z,12.88
2019-05-10T16:21:20.749Z,7.80
2019-05-10T16:23:54.832Z,8.55
2019-05-10T16:26:28.478Z,8.35
2019-05-10T16:29:03.510Z,7.75
2019-05-10T16:31:37.226Z,7.47
2019-05-10T16:34:11.033Z,6.55
2019-05-10T16:36:46.753Z,6.78
2019-05-10T16:39:20.875Z,7.25
2019-05-10T16:41:54.614Z,7.22
2019-05-10T16:44:32.400Z,7.33
2019-05-10T16:47:08.046Z,6.62
2019-05-10T16:49:42.058Z,6.87
2019-05-10T16:52:19.620Z,8.08
2019-05-10T16:54:51.498Z,7.92
2019-05-10T16:57:25.553Z,8.23
2019-05-10T17:00:01.979Z,7.90
2019-05-10T17:02:36.759Z,9.00
2019-05-10T17:05:15.184Z,8.25
2019-05-10T17:07:46.540Z,8.25
2019-05-10T17:10:20.470Z,9.23
2019-05-10T17:12:54.696Z,9.93
2019-05-10T17:15:33.740Z,10.75
2019-05-10T17:18:10.430Z,7.00
2019-05-10T17:20:45.508Z,8.10
2019-05-10T17:23:16.723Z,8.65
2019-05-10T17:25:50.704Z,8.28
2019-05-10T17:28:35.143Z,8.53
2019-05-10T17:31:07.826Z,9.60
2019-05-10T17:33:42.801Z,19.87
2019-05-10T17:36:19.718Z,10.85
2019-05-10T17:38:53.551Z,45.33
2019-05-10T17:41:27.075Z,81.85
2019-05-10T17:44:03.232Z,38.73
2019-05-10T17:46:37.831Z,58.65
2019-05-10T17:49:11.396Z,18.05
2019-05-10T17:51:46.011Z,46.05
2019-05-10T17:54:20.580Z,118.05
2019-05-10T17:56:54.365Z,80.20
2019-05-10T17:59:27.955Z,136.22
2019-05-10T18:02:01.797Z,179.53
2019-05-10T18:04:35.875Z,192.92
2019-05-10T18:07:10.550Z,79.07
2019-05-10T18:09:44.172Z,76.57
2019-05-10T18:12:20.488Z,43.75
2019-05-10T18:14:55.745Z,47.50
2019-05-10T18:17:30.178Z,40.98
2019-05-10T18:20:04.718Z,29.48
2019-05-10T18:22:42.991Z,26.05
2019-05-10T18:25:20.622Z,25.20
2019-05-10T18:27:50.341Z,23.52
2019-05-10T18:30:24.012Z,15.00
2019-05-10T18:32:58.038Z,15.85
2019-05-10T18:35:32.011Z,18.15
2019-05-10T18:38:05.671Z,14.75
2019-05-10T18:40:39.676Z,15.08
2019-05-10T18:43:13.281Z,18.67
2019-05-10T18:45:46.938Z,15.25
2019-05-10T18:48:23.050Z,17.15
2019-05-10T18:50:56.720Z,86.40
2019-05-10T18:53:30.495Z,148.90
2019-05-10T18:56:04.661Z,37.63
2019-05-10T18:58:38.351Z,86.65
2019-05-10T19:01:12.021Z,13.98
2019-05-10T19:03:46.002Z,38.28
2019-05-10T19:06:20.612Z,57.83
2019-05-10T19:08:54.846Z,97.22
2019-05-10T19:11:33.235Z,87.82
2019-05-10T19:14:04.885Z,64.55
2019-05-10T19:16:38.829Z,43.13
2019-05-10T19:19:12.933Z,35.98
2019-05-10T19:21:46.933Z,27.93
2019-05-10T19:24:24.298Z,26.85
2019-05-10T19:26:56.317Z,23.40
2019-05-10T19:29:30.450Z,37.95
2019-05-10T19:32:04.637Z,15.50
2019-05-10T19:34:38.231Z,16.35
2019-05-10T19:37:26.816Z,15.43
2019-05-10T19:39:47.082Z,15.40
2019-05-10T19:42:20.945Z,21.80
2019-05-10T19:44:54.940Z,19.65
2019-05-10T19:47:28.874Z,23.15
2019-05-10T19:50:02.841Z,23.07
2019-05-10T19:52:36.655Z,22.82
2019-05-10T19:55:12.870Z,24.07
2019-05-10T19:57:49.562Z,19.05
2019-05-10T20:00:22.340Z,30.82
2019-05-10T20:02:56.498Z,23.25
2019-05-10T20:05:30.187Z,38.92
2019-05-10T20:08:04.309Z,29.72
2019-05-10T20:10:38.203Z,20.85
2019-05-10T20:13:12.076Z,19.05
2019-05-10T20:15:45.770Z,20.75
2019-05-10T20:18:19.480Z,17.42
2019-05-10T20:20:53.052Z,19.75
2019-05-10T20:23:29.968Z,19.12
2019-05-10T20:26:04.042Z,18.05
2019-05-10T20:28:37.774Z,21.12
2019-05-10T20:31:11.344Z,18.32
2019-05-10T20:33:45.109Z,19.30
2019-05-10T20:36:18.991Z,18.75
2019-05-10T20:38:52.637Z,20.17
2019-05-10T20:41:27.313Z,19.90
2019-05-10T20:44:00.925Z,20.77
2019-05-10T20:46:34.676Z,17.73
2019-05-10T20:49:08.351Z,21.23
2019-05-10T20:51:46.011Z,19.90
2019-05-10T20:54:19.661Z,26.25
2019-05-10T20:56:53.475Z,23.18
2019-05-10T20:59:27.180Z,20.08
2019-05-10T21:02:00.838Z,21.42
2019-05-10T21:04:34.972Z,22.55
2019-05-10T21:07:08.639Z,24.60
2019-05-10T21:09:42.350Z,23.00
2019-05-10T21:12:15.963Z,24.87
2019-05-10T21:14:49.589Z,26.25
2019-05-10T21:17:23.260Z,21.45
2019-05-10T21:19:57.365Z,19.35
2019-05-10T21:22:30.942Z,19.55
2019-05-10T21:25:06.668Z,24.80
2019-05-10T21:27:46.359Z,29.55
2019-05-10T21:30:20.361Z,26.40
2019-05-10T21:32:56.846Z,25.17
2019-05-10T21:35:30.452Z,27.48
2019-05-10T21:38:04.528Z,26.95
2019-05-10T21:40:41.425Z,21.42
2019-05-10T21:43:15.006Z,25.82
2019-05-10T21:45:49.587Z,26.75
2019-05-10T21:51:13.668Z,27.40
2019-05-10T21:56:43.562Z,25.17
2019-05-10T21:59:17.272Z,25.88
2019-05-10T22:01:50.849Z,24.95
2019-05-10T22:04:26.179Z,24.00
2019-05-10T22:07:00.024Z,26.20
2019-05-10T22:09:33.751Z,31.35
2019-05-10T22:12:07.921Z,34.10
2019-05-10T22:14:41.641Z,32.53
2019-05-10T22:17:16.489Z,28.85
2019-05-10T22:19:50.570Z,24.57
2019-05-10T22:22:24.491Z,20.70
2019-05-10T22:24:58.080Z,21.48
2019-05-10T22:27:32.088Z,23.10
2019-05-10T22:30:12.353Z,28.65
2019-05-10T22:32:46.229Z,30.82
2019-05-10T22:35:19.986Z,25.35
2019-05-10T22:37:53.553Z,24.30
2019-05-10T22:40:46.454Z,24.67
2019-05-10T22:43:20.335Z,22.10
2019-05-10T22:45:54.021Z,24.47
2019-05-10T22:48:27.707Z,25.17
2019-05-10T22:51:02.082Z,21.80
2019-05-10T22:53:35.765Z,20.80
2019-05-10T22:56:09.482Z,24.85
2019-05-10T22:58:43.160Z,24.35
2019-05-10T23:01:16.859Z,23.98
2019-05-10T23:03:50.539Z,22.73
2019-05-10T23:06:24.243Z,24.40
2019-05-10T23:08:57.920Z,24.45
2019-05-10T23:11:31.907Z,24.30
2019-05-10T23:14:06.639Z,24.07
2019-05-10T23:16:40.354Z,28.40
2019-05-10T23:19:13.969Z,26.55
2019-05-10T23:21:47.694Z,27.90
2019-05-10T23:24:22.842Z,26.87
2019-05-10T23:26:56.527Z,26.40
2019-05-10T23:29:30.099Z,22.45
2019-05-10T23:32:03.712Z,30.10
2019-05-10T23:34:37.366Z,29.72
2019-05-10T23:37:11.118Z,31.35
2019-05-10T23:39:44.786Z,24.40
2019-05-10T23:42:18.590Z,30.15
2019-05-10T23:44:52.281Z,26.42
2019-05-10T23:47:25.980Z,24.40
2019-05-10T23:50:01.579Z,26.23
2019-05-10T23:52:34.988Z,22.20
2019-05-10T23:55:08.827Z,27.07
2019-05-10T23:57:47.886Z,25.50
